createdAt,value
2022-08-07T00:00:14.205Z,72.25
2022-08-07T00:02:40.321Z,71.53
2022-08-07T00:05:08.012Z,71.63
2022-08-07T00:07:40.589Z,71.13
2022-08-07T00:10:25.499Z,71.34
2022-08-07T00:12:57.692Z,72.00
2022-08-07T00:15:25.837Z,72.26
2022-08-07T00:18:04.705Z,71.79
2022-08-07T00:20:34.281Z,72.08
2022-08-07T00:23:00.695Z,72.52
2022-08-07T00:25:26.834Z,72.86
2022-08-07T00:28:03.590Z,72.93
2022-08-07T00:30:31.086Z,72.70
2022-08-07T00:32:58.201Z,72.98
2022-08-07T00:35:25.901Z,73.29
2022-08-07T00:37:52.826Z,73.76
2022-08-07T00:40:36.194Z,73.60
2022-08-07T00:43:10.016Z,73.50
2022-08-07T00:45:36.884Z,73.58
2022-08-07T00:48:08.373Z,73.69
2022-08-07T00:50:46.525Z,74.36
2022-08-07T00:53:17.571Z,74.33
2022-08-07T00:56:03.023Z,74.17
2022-08-07T00:58:29.785Z,73.94
2022-08-07T01:00:56.017Z,74.38
2022-08-07T01:03:54.611Z,74.86
2022-08-07T01:06:08.847Z,74.74
2022-08-07T01:08:35.070Z,74.70
2022-08-07T01:12:04.563Z,74.76
2022-08-07T01:13:55.753Z,74.62
2022-08-07T01:16:30.532Z,74.46
2022-08-07T01:18:58.471Z,74.80
2022-08-07T01:21:26.249Z,74.97
2022-08-07T01:23:57.259Z,75.18
2022-08-07T01:26:26.210Z,75.42
2022-08-07T01:28:53.986Z,75.51
2022-08-07T01:31:41.815Z,75.39
2022-08-07T01:34:14.387Z,75.35
2022-08-07T01:36:42.198Z,75.07
2022-08-07T01:39:16.295Z,75.31
2022-08-07T01:42:07.350Z,76.05
2022-08-07T01:44:37.177Z,76.25
2022-08-07T01:48:18.071Z,76.14
2022-08-07T01:49:53.584Z,76.08
2022-08-07T01:52:26.625Z,76.32
2022-08-07T01:54:56.173Z,76.14
2022-08-07T01:57:29.403Z,76.55
2022-08-07T02:00:12.821Z,76.30
2022-08-07T02:03:21.046Z,76.67
2022-08-07T02:05:59.922Z,76.57
2022-08-07T02:08:33.686Z,76.52
2022-08-07T02:11:03.776Z,76.32
2022-08-07T02:13:58.311Z,76.57
2022-08-07T02:16:28.621Z,76.59
2022-08-07T02:19:02.162Z,76.78
2022-08-07T02:21:56.620Z,76.94
2022-08-07T02:24:19.864Z,76.95
2022-08-07T02:26:47.167Z,77.18
2022-08-07T02:29:13.963Z,77.38
2022-08-07T02:31:41.970Z,77.71
2022-08-07T02:34:11.228Z,77.89
2022-08-07T02:36:49.581Z,78.09
2022-08-07T02:39:43.017Z,77.75
2022-08-07T02:42:10.128Z,77.47
2022-08-07T02:44:47.789Z,77.91
2022-08-07T02:47:19.767Z,78.36
2022-08-07T02:49:58.985Z,78.33
2022-08-07T02:52:34.579Z,78.84
2022-08-07T02:55:15.432Z,78.74
2022-08-07T02:57:55.446Z,79.05
2022-08-07T03:00:24.217Z,79.19
2022-08-07T03:02:54.588Z,79.46
2022-08-07T03:05:23.226Z,79.34
2022-08-07T03:08:07.102Z,79.81
2022-08-07T03:10:40.908Z,79.91
2022-08-07T03:13:15.653Z,80.26
2022-08-07T03:15:47.798Z,80.82
2022-08-07T03:18:25.883Z,80.58
2022-08-07T03:21:02.809Z,79.90
2022-08-07T03:23:33.991Z,79.99
2022-08-07T03:26:21.188Z,80.03
2022-08-07T03:28:50.158Z,80.29
2022-08-07T03:31:19.307Z,80.62
2022-08-07T03:34:02.426Z,80.16
2022-08-07T03:36:34.297Z,80.35
2022-08-07T03:39:09.599Z,80.24
2022-08-07T03:41:42.560Z,80.18
2022-08-07T03:44:15.363Z,80.10
2022-08-07T03:47:11.509Z,80.50
2022-08-07T03:49:30.442Z,80.69
2022-08-07T03:52:01.983Z,80.41
2022-08-07T03:54:36.187Z,80.53
2022-08-07T03:58:32.442Z,80.37
2022-08-07T04:00:04.627Z,80.39
2022-08-07T04:02:47.501Z,80.05
2022-08-07T04:05:39.572Z,80.20
2022-08-07T04:08:12.758Z,79.83
2022-08-07T04:10:43.546Z,79.42
2022-08-07T04:13:27.676Z,79.77
2022-08-07T04:15:54.707Z,79.70
2022-08-07T04:18:59.027Z,79.89
2022-08-07T04:21:07.677Z,79.84
2022-08-07T04:23:43.920Z,79.73
2022-08-07T04:26:21.972Z,79.18
2022-08-07T04:28:48.847Z,79.22
2022-08-07T04:31:19.785Z,78.71
2022-08-07T04:33:47.400Z,78.13
2022-08-07T04:36:22.715Z,78.41
2022-08-07T04:38:52.302Z,77.88
2022-08-07T04:41:19.418Z,77.61
2022-08-07T04:44:14.518Z,77.56
2022-08-07T04:46:59.524Z,77.04
2022-08-07T04:49:42.700Z,76.66
2022-08-07T04:52:36.807Z,76.36
2022-08-07T04:58:14.418Z,76.16
2022-08-07T05:01:52.033Z,73.64
2022-08-07T05:04:37.689Z,73.19
2022-08-07T05:07:20.012Z,73.14
2022-08-07T23:14:16.728Z,62.48
2022-08-07T23:17:31.907Z,62.50
2022-08-07T23:20:26.179Z,62.83
2022-08-07T23:24:06.252Z,62.85
2022-08-07T23:27:07.750Z,63.01
2022-08-07T23:30:37.609Z,63.41
2022-08-07T23:34:33.774Z,63.35
2022-08-07T23:36:03.800Z,63.46
2022-08-07T23:38:58.707Z,63.80
2022-08-07T23:41:47.526Z,63.71
2022-08-07T23:44:43.196Z,63.94
2022-08-07T23:47:22.818Z,64.17
2022-08-07T23:50:27.162Z,64.40
2022-08-07T23:53:49.540Z,64.20
2022-08-07T23:56:26.985Z,64.41
